Airfield :
LOGIN :

Register | Disclaimer

   EN    FR    IT 

 










Legend :    VFR   Marginal VFR   IFR   Intensive IFR   Very Intensive IFR
Visi :
Ceiling :
>= 8 km
>= 3000ft
5 to 8 km
1000 to 3000 ft
1500m to 5 km
500 to 1000 ft
800 to 1500m
200 to 500 ft
< 800m
< 200 ft
Symbols :   Thunderstorms  Fog  Heavy snow  Heavy precipitations  Wind > 20 kt
SIGMETs :     Misc.  Thunderstorms  Icing  Turbulence  Mountain Waves  Volcanic Ashes







- Airport Elevation : 821 ft
- IATA code : LYS
- Download approach charts


LFLL - Lyon St Exupéry / Satolas

CURRENT METAR :
  • 230630Z VRB02KT 3200 0400N R35L/P2000 R17R/0250D R35R/P2000 R17L/P2000 BCFG BR NSC 03/02 Q1030 NOSIG

EXPIRED METARs :
  • 230600Z VRB02KT 3400 0600 R35L/1100U R17R/1600U R35R/P2000 R17L/P2000 BCFG BR NSC 03/02 Q1030 NOSIG
  • 230530Z 00000KT 4000 BR NSC 03/03 Q1030 TEMPO 0700 BCFG BKN008
  • 230500Z 23002KT 4000 BR NSC 04/03 Q1029 TEMPO 0700 BCFG BKN008
  • 230430Z 00000KT 4700 BR NSC 03/03 Q1030 TEMPO BKN008
  • 230400Z 00000KT 5000 BR NSC 04/03 Q1030 TEMPO BKN006

TAF TAF LFLL
Valid from the 23 at 06:00 until the 24 at 12:00 UTC


230500Z 2306/2412 VRB02KT 3500 BR NSC
TEMPO 2306/2309 0700 BCFG
PROB30
TEMPO 2306/2309 BKN003
TEMPO 2309/2312 7000 NSW BKN012
FM231200 01005KT CAVOK
PROB30
TEMPO 2403/2408 4500 BR BKN014 BKN020
No reported NOTAMs for that airfield.



MET'MAP, your aeronautical weather chart ! - Copyright ORBIFLY December 2007 - Disclaimer

ORBIFLY MET'MAP TEAM :

Programming & Development : Alexandra Zaïnal
Concept & Development : Baudouin d'Aumeries
Co-Development & Prog : Marc-Olivier Méhu
Technical & hardware support : Manuel Goepfert

Contact : metmap@orbifly.com




SOURCES & CREDITS :

   NOAA